createdAt,value
2017-10-29T09:36:08.844Z,4404
2017-10-29T09:37:10.308Z,4344
2017-10-29T09:38:11.927Z,5516
2017-10-29T09:39:13.337Z,4912
2017-10-29T09:40:14.760Z,3208
2017-10-29T09:41:16.182Z,2760
2017-10-29T09:42:17.604Z,4200
2017-10-29T09:43:19.036Z,4292
2017-10-29T09:44:23.141Z,5464
2017-10-29T09:45:24.665Z,5024
2017-10-29T09:46:26.216Z,3888
2017-10-29T09:47:27.771Z,4736
2017-10-29T09:48:29.354Z,4804
2017-10-29T09:49:30.863Z,3868
2017-10-29T09:50:32.425Z,3812
2017-10-29T09:51:33.924Z,3192
2017-10-29T09:52:35.607Z,2636
2017-10-29T09:53:39.338Z,2336
2017-10-29T09:54:40.892Z,2192
2017-10-29T09:55:42.416Z,1948
2017-10-29T09:56:43.990Z,1980
2017-10-29T09:57:45.476Z,2656
2017-10-29T09:58:47.011Z,2288
2017-10-29T09:59:48.545Z,2000
2017-10-29T10:00:50.065Z,2684
2017-10-29T10:01:51.554Z,3016
2017-10-29T10:02:53.393Z,2608
2017-10-29T10:03:54.925Z,2036
2017-10-29T10:04:56.456Z,1856
2017-10-29T10:05:57.906Z,2388
2017-10-29T10:06:59.410Z,2076
2017-10-29T10:08:00.868Z,2056
2017-10-29T10:09:02.411Z,3028
2017-10-29T10:10:06.196Z,3500
2017-10-29T10:11:07.734Z,4328
2017-10-29T10:12:09.191Z,2896
2017-10-29T10:13:10.734Z,3084
2017-10-29T10:14:12.274Z,3072
2017-10-29T10:15:13.731Z,2788
2017-10-29T10:16:15.315Z,2204
2017-10-29T10:17:16.782Z,2028
2017-10-29T10:18:18.338Z,2568
2017-10-29T10:19:19.861Z,3100
2017-10-29T10:20:21.382Z,3064
2017-10-29T10:21:22.874Z,4692
2017-10-29T10:22:24.394Z,6040
2017-10-29T10:23:25.936Z,5420
2017-10-29T10:24:27.487Z,3872
2017-10-29T10:25:29.141Z,2508
2017-10-29T10:26:30.656Z,1976
2017-10-29T10:27:32.219Z,2104
2017-10-29T10:28:33.985Z,2392
2017-10-29T10:29:35.530Z,2600
2017-10-29T10:30:37.087Z,2248
2017-10-29T10:31:38.656Z,1904
2017-10-29T10:32:40.348Z,3612
2017-10-29T10:33:41.855Z,4336
2017-10-29T10:34:43.314Z,3968
2017-10-29T10:35:44.856Z,4584
2017-10-29T10:36:46.476Z,5704
2017-10-29T10:37:48.121Z,4664
2017-10-29T10:38:50.129Z,3284
2017-10-29T10:39:51.613Z,3116
2017-10-29T10:40:53.277Z,2860
2017-10-29T10:41:55.267Z,2740
2017-10-29T10:42:57.010Z,3000
2017-10-29T10:43:59.279Z,3308
2017-10-29T10:45:02.128Z,4000
2017-10-29T10:46:04.785Z,4208
2017-10-29T10:47:06.445Z,4864
2017-10-29T10:48:07.950Z,5748
2017-10-29T10:49:09.582Z,5260
2017-10-29T10:50:11.096Z,4112
2017-10-29T10:51:12.608Z,4032
2017-10-29T10:52:14.224Z,4220
2017-10-29T10:53:15.739Z,4028
2017-10-29T10:54:17.248Z,3732
2017-10-29T10:55:18.772Z,3656
2017-10-29T10:56:20.354Z,3636
2017-10-29T10:57:21.876Z,3956
2017-10-29T10:58:23.404Z,3552
2017-10-29T10:59:25.033Z,3392
2017-10-29T11:00:26.585Z,3180
2017-10-29T11:01:28.114Z,2856
2017-10-29T11:02:29.680Z,2200
2017-10-29T11:03:31.207Z,2164
2017-10-29T11:04:33.175Z,3116
2017-10-29T11:05:34.724Z,3368
2017-10-29T11:06:36.970Z,2784
2017-10-29T11:07:38.529Z,2012
2017-10-29T11:08:40.108Z,2172
2017-10-29T11:09:42.109Z,2428
2017-10-29T11:10:43.626Z,2464
2017-10-29T11:11:45.099Z,1956
2017-10-29T11:12:46.596Z,1860
2017-10-29T11:13:48.141Z,2008
2017-10-29T11:14:49.673Z,1756
2017-10-29T11:15:51.276Z,1352
2017-10-29T11:16:52.786Z,1664
2017-10-29T11:17:54.304Z,2268
2017-10-29T11:18:55.782Z,2468
2017-10-29T11:19:57.319Z,4016
2017-10-29T11:20:58.867Z,4596
2017-10-29T11:22:00.336Z,5080
2017-10-29T11:23:01.826Z,4520
2017-10-29T11:24:03.348Z,6056
2017-10-29T11:25:04.899Z,5044
2017-10-29T11:26:06.408Z,5140
2017-10-29T11:27:07.844Z,6640
2017-10-29T11:28:09.351Z,4596
2017-10-29T11:29:10.910Z,3308
2017-10-29T11:30:12.383Z,3116
2017-10-29T11:31:13.889Z,3628
2017-10-29T11:32:15.600Z,3868
2017-10-29T11:33:17.132Z,3176
2017-10-29T11:34:18.695Z,2616
2017-10-29T11:35:20.164Z,2368
2017-10-29T11:36:21.673Z,2452
2017-10-29T11:37:23.184Z,2000
2017-10-29T11:38:24.723Z,1572
2017-10-29T11:39:26.172Z,1776
2017-10-29T11:40:27.784Z,2100
2017-10-29T11:41:29.311Z,3824
2017-10-29T11:42:30.820Z,6444
2017-10-29T11:43:32.340Z,8492
2017-10-29T11:44:33.887Z,9696
2017-10-29T11:45:35.428Z,10784
2017-10-29T11:46:36.979Z,6524
2017-10-29T11:47:39.084Z,7620
2017-10-29T11:48:40.660Z,13864
2017-10-29T11:49:42.218Z,8504
2017-10-29T11:50:43.776Z,9288
2017-10-29T11:51:45.329Z,11120
2017-10-29T11:52:47.050Z,13164
2017-10-29T11:53:48.702Z,26720
2017-10-29T11:55:30.173Z,9600
2017-10-29T11:56:31.805Z,5048
2017-10-29T11:57:33.542Z,3796
2017-10-29T11:58:35.225Z,4868
2017-10-29T11:59:37.786Z,6248
2017-10-29T12:00:39.473Z,6324
2017-10-29T12:01:41.070Z,4764
2017-10-29T12:02:42.692Z,4052
2017-10-29T12:03:44.155Z,5012
2017-10-29T12:04:45.580Z,7640
2017-10-29T12:05:47.217Z,40160
2017-10-29T12:06:48.723Z,39872
2017-10-29T12:07:50.288Z,43040
2017-10-29T12:08:51.841Z,23776
2017-10-29T12:09:53.360Z,29248
2017-10-29T12:10:55.132Z,27360
2017-10-29T12:11:56.872Z,13744
2017-10-29T12:12:58.354Z,6264
2017-10-29T12:13:59.856Z,4952
2017-10-29T12:15:01.458Z,3560
2017-10-29T12:16:03.079Z,2596
2017-10-29T12:17:04.755Z,2064
2017-10-29T12:18:06.540Z,1832
2017-10-29T12:19:07.999Z,1724
2017-10-29T12:20:09.628Z,1688
2017-10-29T12:21:11.092Z,1628
2017-10-29T12:22:12.966Z,1360
2017-10-29T12:23:14.422Z,1632
2017-10-29T12:24:16.056Z,2276
2017-10-29T12:25:17.651Z,3076
2017-10-29T12:26:19.397Z,4132
2017-10-29T12:27:20.931Z,5144
2017-10-29T12:28:22.517Z,5792
2017-10-29T12:29:24.040Z,5152
2017-10-29T12:30:25.488Z,6412
2017-10-29T12:31:26.984Z,8304
2017-10-29T12:32:28.483Z,6552
2017-10-29T12:33:30.237Z,3968
2017-10-29T12:34:31.749Z,2628
2017-10-29T12:35:33.307Z,2372
2017-10-29T12:36:34.771Z,2924
2017-10-29T12:37:36.308Z,3520
2017-10-29T12:38:37.946Z,3600
2017-10-29T12:39:39.586Z,3068
2017-10-29T12:40:41.353Z,2812
2017-10-29T12:41:42.881Z,2036
2017-10-29T12:42:44.371Z,1616
2017-10-29T12:43:45.957Z,1772
2017-10-29T12:44:47.460Z,2412
2017-10-29T12:45:49.796Z,2528
2017-10-29T12:46:51.431Z,2568
2017-10-29T12:47:53.714Z,3692
2017-10-29T12:48:55.231Z,4800
2017-10-29T12:49:57.062Z,5272
2017-10-29T12:50:58.591Z,5680
2017-10-29T12:52:00.171Z,7012
2017-10-29T12:53:01.883Z,8648
2017-10-29T12:54:03.634Z,11816
2017-10-29T12:55:05.251Z,15776
2017-10-29T12:56:06.741Z,9408
2017-10-29T12:57:08.582Z,7704
2017-10-29T12:58:10.085Z,6024
2017-10-29T12:59:11.577Z,6248
2017-10-29T13:00:14.301Z,6048
2017-10-29T13:01:16.470Z,4048
2017-10-29T13:02:18.270Z,2008
2017-10-29T13:03:20.117Z,1644
2017-10-29T13:04:21.657Z,1596
2017-10-29T13:05:23.146Z,1712
2017-10-29T13:06:24.982Z,1420
2017-10-29T13:07:28.056Z,1280
2017-10-29T13:08:29.623Z,1272
2017-10-29T13:09:31.462Z,1592
2017-10-29T13:10:33.263Z,2152
2017-10-29T13:11:34.929Z,3424
2017-10-29T13:12:36.704Z,4160
2017-10-29T13:13:38.300Z,5832
2017-10-29T13:14:40.035Z,7664
2017-10-29T13:15:41.783Z,9052
2017-10-29T13:16:43.431Z,9436
2017-10-29T13:17:45.252Z,9508
2017-10-29T13:18:46.974Z,9468
2017-10-29T13:19:48.569Z,9964
2017-10-29T13:20:50.322Z,10048
2017-10-29T13:21:51.772Z,11764
2017-10-29T13:22:53.507Z,8188
2017-10-29T13:23:55.270Z,22880
2017-10-29T13:24:57.050Z,5792
2017-10-29T13:25:59.075Z,3576
2017-10-29T13:27:00.690Z,2864
2017-10-29T13:28:02.329Z,3788
2017-10-29T13:29:03.944Z,4132
2017-10-29T13:30:05.649Z,3268
2017-10-29T13:31:07.358Z,3100
2017-10-29T13:32:08.862Z,3092
2017-10-29T13:33:10.634Z,3264
2017-10-29T13:34:12.331Z,3288
2017-10-29T13:35:14.491Z,3104
2017-10-29T13:36:15.952Z,2580
2017-10-29T13:37:17.412Z,2216
2017-10-29T13:38:18.904Z,2272
2017-10-29T13:39:20.487Z,2348
2017-10-29T13:40:21.986Z,2352
2017-10-29T13:41:23.680Z,2528
2017-10-29T13:42:25.338Z,2592
2017-10-29T13:43:27.092Z,3304
2017-10-29T13:44:28.826Z,2968
2017-10-29T13:45:30.387Z,2540
2017-10-29T13:46:32.029Z,2864
2017-10-29T13:47:33.738Z,3232
2017-10-29T13:48:35.433Z,3476
2017-10-29T13:49:37.182Z,3052
2017-10-29T13:50:38.861Z,3504
2017-10-29T13:51:40.586Z,4212
2017-10-29T13:52:42.299Z,5212
2017-10-29T13:53:43.866Z,6736
2017-10-29T13:54:45.496Z,5248
2017-10-29T13:55:47.238Z,5948
2017-10-29T13:56:48.740Z,4792
2017-10-29T13:57:50.325Z,4100
2017-10-29T13:58:51.736Z,2836
2017-10-29T13:59:53.250Z,2216
2017-10-29T14:00:54.916Z,1680
2017-10-29T14:01:56.415Z,1932
2017-10-29T14:02:58.088Z,2404
2017-10-29T14:03:59.586Z,2212
2017-10-29T14:05:01.188Z,1840
2017-10-29T14:06:02.845Z,1460
2017-10-29T14:07:04.297Z,1360
2017-10-29T14:08:05.867Z,1364
2017-10-29T14:09:07.443Z,1268
2017-10-29T14:10:08.969Z,1184
2017-10-29T14:11:10.482Z,1260
2017-10-29T14:12:12.268Z,1600
2017-10-29T14:13:13.945Z,2448
2017-10-29T14:14:15.518Z,3004
2017-10-29T14:15:17.271Z,2348
2017-10-29T14:17:17.527Z,1488
2017-10-29T14:18:18.903Z,844
2017-10-29T14:19:20.294Z,360
2017-10-29T14:20:21.846Z,476
2017-10-29T14:21:23.461Z,904
2017-10-29T14:22:25.151Z,1192
2017-10-29T14:23:26.848Z,1672
2017-10-29T14:24:28.491Z,2472
2017-10-29T14:25:30.159Z,2812
2017-10-29T14:26:31.700Z,2752
2017-10-29T14:27:33.369Z,2236
2017-10-29T14:28:36.026Z,2356
2017-10-29T14:29:37.654Z,2420
2017-10-29T14:30:39.171Z,2264
2017-10-29T14:31:40.761Z,1940
2017-10-29T14:32:42.466Z,1744
2017-10-29T14:33:44.083Z,1884
2017-10-29T14:34:45.606Z,1936
2017-10-29T14:35:47.225Z,1876
2017-10-29T14:36:48.854Z,1752
2017-10-29T14:37:50.417Z,2000
2017-10-29T14:38:52.009Z,2316
2017-10-29T14:39:53.476Z,2612
2017-10-29T14:40:55.226Z,2560
2017-10-29T14:41:57.006Z,2520
2017-10-29T14:42:58.644Z,2484
2017-10-29T14:44:00.900Z,2048
2017-10-29T14:45:03.718Z,1548
2017-10-29T14:46:05.489Z,1072
2017-10-29T14:47:07.159Z,784
2017-10-29T14:48:08.750Z,656
2017-10-29T14:49:10.507Z,608
2017-10-29T14:50:12.189Z,600
2017-10-29T14:51:13.858Z,560
2017-10-29T14:52:15.345Z,480
2017-10-29T14:53:16.851Z,412
2017-10-29T14:54:18.320Z,332
2017-10-29T14:55:19.837Z,272
2017-10-29T14:56:21.354Z,220
2017-10-29T14:57:22.974Z,212
2017-10-29T14:58:24.611Z,196
2017-10-29T14:59:27.679Z,172
2017-10-29T15:00:29.187Z,168
2017-10-29T15:01:30.760Z,164
2017-10-29T15:02:32.429Z,252
2017-10-29T15:03:34.071Z,364
2017-10-29T15:04:35.782Z,500
2017-10-29T15:05:37.595Z,716
2017-10-29T15:06:39.661Z,940
2017-10-29T15:07:41.254Z,1044
2017-10-29T15:08:42.800Z,1120
2017-10-29T15:09:44.316Z,1036
2017-10-29T15:10:46.563Z,888
2017-10-29T15:11:50.254Z,892
2017-10-29T15:12:51.884Z,956
2017-10-29T15:13:57.402Z,1088
2017-10-29T15:15:00.098Z,988
2017-10-29T15:16:05.681Z,908
2017-10-29T15:18:39.511Z,844
2017-10-29T15:19:42.198Z,848
2017-10-29T15:20:45.199Z,868
2017-10-29T15:21:46.915Z,916
2017-10-29T15:22:48.580Z,916
2017-10-29T15:24:41.539Z,996
2017-10-29T15:25:43.842Z,1064
2017-10-29T15:26:46.760Z,1084
2017-10-29T15:27:47.975Z,948
2017-10-29T15:28:49.662Z,736
2017-10-29T15:29:51.200Z,568
2017-10-29T15:30:53.475Z,488
2017-10-29T15:31:55.970Z,460
2017-10-29T15:32:57.869Z,432
2017-10-29T15:33:59.589Z,400
2017-10-29T15:35:01.226Z,348
2017-10-29T15:36:04.962Z,300
2017-10-29T15:37:06.699Z,264
2017-10-29T15:38:08.786Z,248
2017-10-29T15:39:12.108Z,236
2017-10-29T15:40:13.775Z,220
2017-10-29T15:41:15.464Z,212
2017-10-29T15:42:17.305Z,236
2017-10-29T15:43:20.355Z,264
2017-10-29T15:44:23.004Z,300
2017-10-29T15:46:43.079Z,332
2017-10-29T15:47:50.385Z,316
2017-10-29T15:48:52.477Z,308
2017-10-29T15:49:53.931Z,284
2017-10-29T15:50:55.613Z,244
2017-10-29T15:51:57.276Z,204
2017-10-29T15:52:58.811Z,160
2017-10-29T15:54:00.317Z,124
2017-10-29T15:55:01.770Z,100
2017-10-29T15:56:03.273Z,80
2017-10-29T15:57:04.820Z,76
2017-10-29T15:58:06.410Z,72
2017-10-29T15:59:08.221Z,60
2017-10-29T16:00:09.777Z,52
2017-10-29T16:01:11.316Z,44
2017-10-29T16:02:12.875Z,40
2017-10-29T16:03:14.407Z,32
2017-10-29T16:04:16.821Z,28
2017-10-29T16:05:18.382Z,28
2017-10-29T16:06:19.850Z,24
2017-10-29T16:07:21.686Z,20
2017-10-29T16:08:23.222Z,20
2017-10-29T16:09:25.102Z,12
2017-10-29T16:10:26.714Z,12
2017-10-29T16:11:28.439Z,8
2017-10-29T16:12:29.980Z,8
2017-10-29T16:13:31.720Z,4
2017-10-29T16:14:33.333Z,4
2017-10-29T16:15:34.959Z,4
2017-10-29T16:16:37.456Z,0
2017-10-29T16:17:39.107Z,4
2017-10-29T16:18:41.633Z,0
2017-10-29T16:19:43.156Z,0
2017-10-29T16:20:44.797Z,0
2017-10-29T16:21:46.306Z,0
2017-10-29T16:22:48.050Z,0
2017-10-29T16:23:49.531Z,4
2017-10-29T16:24:51.016Z,4
2017-10-29T16:25:52.485Z,4
2017-10-29T16:26:54.626Z,4
2017-10-29T16:27:56.135Z,0
2017-10-29T16:28:57.617Z,0
2017-10-29T16:29:59.165Z,0
2017-10-29T16:31:00.747Z,0
2017-10-29T16:32:02.315Z,0
2017-10-29T16:33:05.520Z,0
2017-10-29T16:34:07.229Z,0
2017-10-29T16:35:09.015Z,0
2017-10-29T16:36:10.618Z,0
2017-10-29T16:37:14.521Z,0
2017-10-29T16:38:16.053Z,0
2017-10-29T16:39:18.468Z,0
2017-10-29T16:40:20.108Z,0
2017-10-29T16:41:22.256Z,0
2017-10-29T16:42:24.598Z,0
2017-10-29T16:43:26.119Z,0
2017-10-29T16:44:27.738Z,0
2017-10-29T16:45:29.399Z,0
2017-10-29T16:46:31.411Z,0
2017-10-29T16:47:33.354Z,0
2017-10-29T16:48:36.077Z,0
2017-10-29T16:49:37.773Z,0
2017-10-29T16:50:39.266Z,0
2017-10-29T16:51:40.784Z,0
2017-10-29T16:52:42.308Z,0
2017-10-29T16:53:44.151Z,0
2017-10-29T16:54:46.581Z,0
2017-10-29T16:55:48.103Z,0
2017-10-29T16:56:49.652Z,0
2017-10-29T16:57:51.243Z,0
2017-10-29T16:58:52.670Z,0
2017-10-29T16:59:54.151Z,0
2017-10-29T17:00:55.616Z,0
2017-10-29T17:01:57.836Z,0
2017-10-29T17:02:59.576Z,0
2017-10-29T17:04:01.364Z,0
2017-10-29T17:05:03.013Z,0
2017-10-29T17:06:04.796Z,0
2017-10-29T17:07:06.276Z,0
2017-10-29T17:08:07.860Z,0
2017-10-29T17:09:09.426Z,0
2017-10-29T17:10:10.891Z,0
2017-10-29T17:11:12.598Z,0
2017-10-29T17:12:14.134Z,0
2017-10-29T17:13:15.634Z,0
2017-10-29T17:14:17.428Z,0
2017-10-29T17:15:19.070Z,0
2017-10-29T17:16:20.577Z,0
2017-10-29T17:17:22.595Z,0
2017-10-29T17:18:25.586Z,0
2017-10-29T17:19:30.314Z,0
2017-10-29T17:20:36.567Z,0
2017-10-29T17:21:38.136Z,0
2017-10-29T17:22:41.034Z,0
2017-10-29T17:23:42.897Z,0
2017-10-29T17:24:44.532Z,0
2017-10-29T17:25:48.482Z,0
2017-10-29T17:26:49.961Z,0
2017-10-29T17:27:51.561Z,0
2017-10-29T17:28:53.304Z,0
2017-10-29T17:29:56.943Z,0
2017-10-29T17:31:11.651Z,0
2017-10-29T17:34:11.138Z,0
2017-10-29T17:35:51.606Z,0
2017-10-29T17:36:54.028Z,0
2017-10-29T17:37:56.519Z,0
2017-10-29T17:38:59.343Z,0
2017-10-29T17:40:01.005Z,0
2017-10-29T17:41:02.757Z,0
2017-10-29T17:42:04.841Z,0
2017-10-29T17:43:09.068Z,0
2017-10-29T17:44:10.832Z,0
2017-10-29T17:45:12.711Z,0
2017-10-29T17:46:20.362Z,0
2017-10-29T17:47:21.742Z,0
2017-10-29T17:48:23.301Z,0
2017-10-29T17:49:24.827Z,0
2017-10-29T17:50:26.326Z,0
2017-10-29T17:51:27.915Z,0
2017-10-29T17:52:29.451Z,0
2017-10-29T17:53:30.949Z,0
2017-10-29T17:54:32.599Z,0
2017-10-29T17:55:34.140Z,0
2017-10-29T17:56:35.685Z,0
2017-10-29T17:57:37.486Z,0
2017-10-29T17:58:39.098Z,0
2017-10-29T17:59:40.843Z,0
2017-10-29T18:00:42.632Z,0
2017-10-29T18:01:44.263Z,0
2017-10-29T18:02:45.810Z,0
2017-10-29T18:03:47.362Z,0
2017-10-29T18:04:48.882Z,0
2017-10-29T18:05:50.486Z,0
2017-10-29T18:06:52.025Z,0
2017-10-29T18:07:53.569Z,0
2017-10-29T18:08:55.314Z,0
2017-10-29T18:09:56.837Z,0
2017-10-29T18:10:58.466Z,0
2017-10-29T18:11:59.984Z,0
2017-10-29T18:13:01.512Z,0
2017-10-29T18:14:03.122Z,0
2017-10-29T18:15:04.732Z,0
2017-10-29T18:16:06.463Z,0
2017-10-29T18:17:08.022Z,0
2017-10-29T18:18:09.556Z,0
2017-10-29T18:19:11.088Z,0
2017-10-29T18:20:12.647Z,0
2017-10-29T18:21:14.163Z,0
2017-10-29T18:22:15.708Z,0
2017-10-29T18:23:17.245Z,0
2017-10-29T18:24:18.777Z,0
2017-10-29T18:25:20.350Z,0
2017-10-29T18:26:21.907Z,0
2017-10-29T18:27:23.607Z,0
2017-10-29T18:28:25.177Z,0
2017-10-29T18:29:26.687Z,0
2017-10-29T18:30:28.364Z,0
2017-10-29T18:31:29.927Z,0
2017-10-29T18:32:31.514Z,0
2017-10-29T18:33:33.031Z,0
2017-10-29T18:34:34.558Z,0
2017-10-29T18:35:36.096Z,0
2017-10-29T18:36:37.697Z,0
2017-10-29T18:37:39.476Z,0
2017-10-29T18:38:41.213Z,0
2017-10-29T18:39:42.965Z,0
2017-10-29T18:40:45.194Z,0
2017-10-29T18:41:46.845Z,0
2017-10-29T18:42:48.392Z,0
2017-10-29T18:43:50.012Z,0
2017-10-29T18:44:51.475Z,0
2017-10-29T18:45:53.107Z,0
2017-10-29T18:46:54.648Z,0
2017-10-29T18:47:56.145Z,0
2017-10-29T18:48:57.706Z,0
2017-10-29T18:49:59.249Z,0
2017-10-29T18:51:00.866Z,0
2017-10-29T18:52:02.360Z,0
2017-10-29T18:53:03.869Z,0
2017-10-29T18:54:05.378Z,0
2017-10-29T18:55:07.219Z,0
2017-10-29T18:56:08.803Z,0
2017-10-29T18:57:12.206Z,0
2017-10-29T18:58:14.376Z,0
2017-10-29T18:59:15.808Z,0
2017-10-29T19:00:17.544Z,0
2017-10-29T19:01:19.677Z,0
2017-10-29T19:02:21.287Z,0
2017-10-29T19:03:22.812Z,0
2017-10-29T19:04:24.427Z,0
2017-10-29T19:05:25.993Z,0
2017-10-29T19:06:27.455Z,0
2017-10-29T19:07:28.967Z,0
2017-10-29T19:08:30.468Z,0
2017-10-29T19:09:31.964Z,0
2017-10-29T19:10:33.444Z,0
2017-10-29T19:11:35.074Z,0
2017-10-29T19:14:07.537Z,0
